Time;durP1;ratioP1;P1;durP2;ratioP2;P2;SDS_P1;SDS_P2;PMS_P1;PMS_P2;Temp;Humidity;BMP_temperature;BMP_pressure;BME280_temperature;BME280_humidity;BME280_pressure;Samples;Min_cycle;Max_cycle;Signal;HPM_P1;HPM_P2
2022/06/07 00:01:20;;;;;;;;;;;461.30;2380.80;;;;;;5058386;28;19911;-87
2022/06/07 00:03:45;;;;;;;;;;;461.10;2380.80;;;;;;5058202;28;19947;-87
2022/06/07 00:06:11;;;;;;;;;;;461.00;2380.80;;;;;;5058518;28;19958;-88
2022/06/07 00:08:37;;;;;;;;;;;460.90;2380.80;;;;;;5058309;28;19904;-88
2022/06/07 00:11:02;;;;;;;;;;;460.90;2380.80;;;;;;5054899;28;19950;-88
2022/06/07 00:13:28;;;;;;;;;;;460.90;2380.80;;;;;;5054856;28;19944;-89
2022/06/07 00:15:53;;;;;;;;;;;460.90;2380.80;;;;;;5054633;28;19905;-87
2022/06/07 00:18:19;;;;;;;;;;;460.90;2380.80;;;;;;5063942;28;19905;-88
2022/06/07 00:20:45;;;;;;;;;;;461.10;2380.80;;;;;;5060406;28;19950;-87
2022/06/07 00:23:11;;;;;;;;;;;461.10;2380.80;;;;;;5054627;28;19904;-88
2022/06/07 00:25:37;;;;;;;;;;;461.20;2380.80;;;;;;5058062;28;19952;-88
2022/06/07 00:28:03;;;;;;;;;;;461.30;2380.80;;;;;;5054052;28;19923;-88
2022/06/07 00:30:30;;;;;;;;;;;461.40;2380.80;;;;;;5063529;28;19916;-88
2022/06/07 00:32:56;;;;;;;;;;;461.40;2380.80;;;;;;5057369;28;19950;-87
2022/06/07 00:35:21;;;;;;;;;;;461.50;2380.80;;;;;;5054368;28;20337;-88
2022/06/07 00:37:47;;;;;;;;;;;461.50;2380.80;;;;;;5055675;28;19928;-86
2022/06/07 00:40:13;;;;;;;;;;;461.50;2380.80;;;;;;5063466;28;19939;-88
2022/06/07 00:42:38;;;;;;;;;;;461.60;2380.80;;;;;;5045660;28;19908;-87
2022/06/07 00:45:04;;;;;;;;;;;461.50;2380.80;;;;;;5054458;28;19904;-88
2022/06/07 00:47:31;;;;;;;;;;;461.50;2380.80;;;;;;5068238;28;20347;-88
2022/06/07 00:50:05;;;;;;;;;;;461.60;2380.80;;;;;;5061031;28;19912;-87
2022/06/07 00:52:31;;;;;;;;;;;461.60;2380.80;;;;;;5060294;28;20368;-86
2022/06/07 00:54:57;;;;;;;;;;;461.60;2380.80;;;;;;5053159;28;19995;-86
2022/06/07 00:57:23;;;;;;;;;;;461.60;2380.80;;;;;;5053687;28;19951;-87
2022/06/07 00:59:51;;;;;;;;;;;461.50;2380.80;;;;;;5065754;28;19955;-86
2022/06/07 01:02:17;;;;;;;;;;;461.60;2380.80;;;;;;5053752;28;20402;-86
2022/06/07 01:04:42;;;;;;;;;;;461.60;2380.80;;;;;;5053518;28;19912;-87
2022/06/07 01:12:37;;;;;;;;;;;461.70;2380.80;;;;;;5070894;28;20438;-90
2022/06/07 01:15:03;;;;;;;;;;;461.60;2380.80;;;;;;5043286;28;19905;-87
2022/06/07 01:17:29;;;;;;;;;;;461.60;2380.80;;;;;;5056777;28;19904;-87
2022/06/07 01:19:54;;;;;;;;;;;461.60;2380.80;;;;;;5057719;28;19912;-88
2022/06/07 01:22:20;;;;;;;;;;;461.60;2380.80;;;;;;5064930;28;19905;-86
2022/06/07 01:24:46;;;;;;;;;;;486.40;2380.80;;;;;;5059391;28;20355;-88
2022/06/07 01:27:12;;;;;;;;;;;486.40;2380.80;;;;;;5061089;28;19917;-89
2022/06/07 01:29:38;;;;;;;;;;;486.40;2380.80;;;;;;5053199;28;19999;-88
2022/06/07 01:32:04;;;;;;;;;;;461.70;2380.80;;;;;;5053570;28;19904;-88
2022/06/07 01:34:29;;;;;;;;;;;461.70;2380.80;;;;;;5053167;28;20404;-86
2022/06/07 01:36:56;;;;;;;;;;;461.60;2380.80;;;;;;5056605;28;19904;-87
2022/06/07 01:42:06;;;;;;;;;;;461.30;2380.80;;;;;;5054594;28;19911;-87
2022/06/07 01:44:36;;;;;;;;;;;461.10;2380.80;;;;;;5052949;28;19905;-86
2022/06/07 01:47:01;;;;;;;;;;;461.20;2380.80;;;;;;5060183;28;19920;-86
2022/06/07 01:49:27;;;;;;;;;;;461.10;2380.80;;;;;;5059693;28;19904;-87
2022/06/07 01:51:53;;;;;;;;;;;461.00;2380.80;;;;;;5054122;28;20303;-87
2022/06/07 01:54:20;;;;;;;;;;;461.00;2380.80;;;;;;5053007;28;19905;-87
2022/06/07 01:56:46;;;;;;;;;;;461.10;2380.80;;;;;;5052849;28;19940;-87
2022/06/07 01:59:11;;;;;;;;;;;461.10;2380.80;;;;;;5052697;28;19912;-86
2022/06/07 02:01:37;;;;;;;;;;;461.00;2380.80;;;;;;5052781;28;19905;-84
2022/06/07 02:04:03;;;;;;;;;;;461.00;2380.80;;;;;;5055759;28;20342;-82
2022/06/07 02:06:29;;;;;;;;;;;460.90;2380.80;;;;;;5051874;28;19958;-84
2022/06/07 02:08:55;;;;;;;;;;;460.90;2380.80;;;;;;5066265;28;19904;-84
2022/06/07 02:11:22;;;;;;;;;;;460.90;2380.80;;;;;;5052654;28;19905;-84
2022/06/07 02:13:48;;;;;;;;;;;461.10;2380.80;;;;;;5055591;28;19904;-83
2022/06/07 02:16:14;;;;;;;;;;;461.30;2380.80;;;;;;5052135;28;19904;-84
2022/06/07 02:18:40;;;;;;;;;;;461.10;2380.80;;;;;;5052505;28;19904;-85
2022/06/07 02:21:06;;;;;;;;;;;461.10;2380.80;;;;;;5052214;28;20308;-85
2022/06/07 02:23:33;;;;;;;;;;;460.90;2380.80;;;;;;5055698;28;19904;-86
2022/06/07 02:26:01;;;;;;;;;;;460.90;2380.80;;;;;;5051857;28;19919;-84
2022/06/07 02:28:28;;;;;;;;;;;460.80;2380.80;;;;;;5052295;28;19916;-84
2022/06/07 02:30:54;;;;;;;;;;;460.80;2380.80;;;;;;5055120;28;19904;-83
2022/06/07 02:33:21;;;;;;;;;;;436.10;2355.20;;;;;;5055602;28;19904;-84
2022/06/07 02:35:47;;;;;;;;;;;460.80;2380.80;;;;;;5052284;28;19904;-84
2022/06/07 02:38:13;;;;;;;;;;;436.00;2355.20;;;;;;5042878;28;19910;-85
2022/06/07 02:40:39;;;;;;;;;;;436.00;2355.20;;;;;;5071828;28;19904;-85
2022/06/07 02:43:05;;;;;;;;;;;436.00;2355.20;;;;;;5055683;28;19974;-83
2022/06/07 02:45:30;;;;;;;;;;;435.90;2355.20;;;;;;5054911;28;20260;-84
2022/06/07 02:47:56;;;;;;;;;;;435.80;2355.20;;;;;;5055380;28;19958;-85
2022/06/07 02:50:21;;;;;;;;;;;435.70;2355.20;;;;;;5051578;28;19909;-85
2022/06/07 02:52:47;;;;;;;;;;;435.80;2355.20;;;;;;5051901;28;19911;-85
2022/06/07 02:55:12;;;;;;;;;;;435.80;2355.20;;;;;;5051596;28;19944;-84
2022/06/07 02:57:38;;;;;;;;;;;435.90;2355.20;;;;;;5052163;28;19904;-87
2022/06/07 03:00:05;;;;;;;;;;;435.80;2355.20;;;;;;5055344;28;19912;-85
2022/06/07 03:02:31;;;;;;;;;;;435.80;2355.20;;;;;;5054589;28;20294;-84
2022/06/07 03:04:56;;;;;;;;;;;435.90;2355.20;;;;;;5055173;28;19904;-84
2022/06/07 03:07:22;;;;;;;;;;;435.80;2355.20;;;;;;5054534;28;19912;-85
2022/06/07 03:09:48;;;;;;;;;;;435.80;2355.20;;;;;;5063070;28;19927;-84
2022/06/07 03:12:13;;;;;;;;;;;435.90;2355.20;;;;;;5055043;28;19958;-84
2022/06/07 03:14:39;;;;;;;;;;;435.80;2355.20;;;;;;5051727;28;19904;-84
2022/06/07 03:17:06;;;;;;;;;;;435.90;2355.20;;;;;;5064887;28;20330;-88
2022/06/07 03:19:32;;;;;;;;;;;435.80;2355.20;;;;;;5055109;28;19905;-87
2022/06/07 03:21:57;;;;;;;;;;;435.90;2355.20;;;;;;5055577;28;19909;-86
2022/06/07 03:24:25;;;;;;;;;;;435.90;2355.20;;;;;;5055568;28;19904;-86
2022/06/07 03:26:51;;;;;;;;;;;435.90;2355.20;;;;;;5057955;28;19970;-87
2022/06/07 03:29:17;;;;;;;;;;;435.90;2355.20;;;;;;5055893;28;20480;-87
2022/06/07 03:31:42;;;;;;;;;;;436.00;2355.20;;;;;;5056279;28;20382;-87
2022/06/07 03:34:08;;;;;;;;;;;435.90;2355.20;;;;;;5058958;28;19905;-85
2022/06/07 03:36:33;;;;;;;;;;;435.90;2355.20;;;;;;5055190;28;19911;-85
2022/06/07 03:39:00;;;;;;;;;;;436.00;2355.20;;;;;;5060092;28;19987;-86
2022/06/07 03:41:26;;;;;;;;;;;460.80;2380.80;;;;;;5064500;28;19915;-85
2022/06/07 03:43:52;;;;;;;;;;;461.00;2380.80;;;;;;5041711;28;19964;-86
2022/06/07 03:46:20;;;;;;;;;;;460.90;2380.80;;;;;;5055369;28;20424;-86
2022/06/07 03:48:46;;;;;;;;;;;460.80;2380.80;;;;;;5057067;28;19950;-84
2022/06/07 03:51:12;;;;;;;;;;;436.00;2355.20;;;;;;5054896;28;19905;-86
2022/06/07 03:53:38;;;;;;;;;;;436.00;2355.20;;;;;;5058516;28;19904;-85
2022/06/07 03:56:04;;;;;;;;;;;435.80;2355.20;;;;;;5058591;28;20259;-85
2022/06/07 03:58:30;;;;;;;;;;;435.80;2355.20;;;;;;5058450;28;20359;-87
2022/06/07 04:00:57;;;;;;;;;;;436.00;2355.20;;;;;;5054797;28;19914;-85
2022/06/07 04:03:23;;;;;;;;;;;436.00;2355.20;;;;;;5058150;28;19904;-86
2022/06/07 04:05:49;;;;;;;;;;;436.10;2355.20;;;;;;5057850;28;20409;-87
2022/06/07 04:08:15;;;;;;;;;;;436.00;2355.20;;;;;;5054966;28;19951;-87
2022/06/07 04:10:51;;;;;;;;;;;460.80;2380.80;;;;;;5056824;28;19950;-87
2022/06/07 04:13:17;;;;;;;;;;;460.90;2380.80;;;;;;5043238;28;19904;-87
2022/06/07 04:15:43;;;;;;;;;;;460.90;2380.80;;;;;;5056118;28;19911;-86
2022/06/07 04:18:08;;;;;;;;;;;460.90;2380.80;;;;;;5058279;28;19904;-86
2022/06/07 04:20:35;;;;;;;;;;;460.80;2380.80;;;;;;5058325;28;19905;-87
2022/06/07 04:23:00;;;;;;;;;;;460.90;2380.80;;;;;;5057638;28;19912;-87
2022/06/07 04:25:27;;;;;;;;;;;460.90;2380.80;;;;;;5054658;28;19912;-88
2022/06/07 04:27:53;;;;;;;;;;;461.20;2380.80;;;;;;5057551;28;19917;-88
2022/06/07 04:30:19;;;;;;;;;;;461.30;2380.80;;;;;;5053118;28;20286;-88
2022/06/07 04:32:47;;;;;;;;;;;461.30;2380.80;;;;;;5058354;28;19904;-87
2022/06/07 04:35:15;;;;;;;;;;;461.30;2380.80;;;;;;5057877;28;19905;-87
2022/06/07 04:37:41;;;;;;;;;;;461.40;2380.80;;;;;;5057563;28;19965;-88
2022/06/07 04:40:07;;;;;;;;;;;461.20;2380.80;;;;;;5053910;28;19905;-87
2022/06/07 04:42:32;;;;;;;;;;;461.40;2380.80;;;;;;5045618;28;20355;-88
2022/06/07 04:44:58;;;;;;;;;;;461.70;2124.80;;;;;;5071493;28;19999;-87
2022/06/07 04:47:23;;;;;;;;;;;461.50;2355.20;;;;;;5057464;28;19959;-87
2022/06/07 04:49:49;;;;;;;;;;;461.40;2380.80;;;;;;5056276;28;19905;-87
2022/06/07 04:52:14;;;;;;;;;;;461.30;2380.80;;;;;;5057446;28;20283;-87
2022/06/07 04:54:40;;;;;;;;;;;461.50;2380.80;;;;;;5055220;28;19940;-86
2022/06/07 04:57:06;;;;;;;;;;;461.30;2380.80;;;;;;5069278;28;19944;-88
2022/06/07 04:59:32;;;;;;;;;;;461.40;2380.80;;;;;;5061989;28;19912;-87
2022/06/07 05:01:57;;;;;;;;;;;461.40;2380.80;;;;;;5063080;28;19904;-87
2022/06/07 05:04:23;;;;;;;;;;;461.50;2380.80;;;;;;5057974;28;19943;-86
2022/06/07 05:06:49;;;;;;;;;;;461.60;2380.80;;;;;;5053952;28;19917;-85
2022/06/07 05:09:17;;;;;;;;;;;461.70;2380.80;;;;;;5053958;28;19912;-85
2022/06/07 05:11:47;;;;;;;;;;;461.70;2380.80;;;;;;5053819;28;20802;-86
2022/06/07 05:14:12;;;;;;;;;;;486.50;2176.00;;;;;;5053576;28;20022;-86
2022/06/07 05:16:39;;;;;;;;;;;487.20;2380.80;;;;;;5056905;28;20341;-86
2022/06/07 05:19:04;;;;;;;;;;;512.20;2380.80;;;;;;5053682;28;19904;-87
2022/06/07 05:21:30;;;;;;;;;;;512.30;2380.80;;;;;;5053613;28;20274;-86
2022/06/07 05:23:56;;;;;;;;;;;512.60;2380.80;;;;;;5056729;28;19942;-86
2022/06/07 05:26:35;;;;;;;;;;;512.90;2380.80;;;;;;5052906;28;20427;-86
2022/06/07 05:29:01;;;;;;;;;;;537.60;2406.40;;;;;;5053748;28;20307;-87
2022/06/07 05:31:27;;;;;;;;;;;537.60;2406.40;;;;;;5053511;28;19959;-87
2022/06/07 05:33:53;;;;;;;;;;;512.30;2380.80;;;;;;5056693;28;19944;-86
2022/06/07 05:36:19;;;;;;;;;;;512.40;2380.80;;;;;;5039223;28;19912;-86
2022/06/07 05:38:45;;;;;;;;;;;512.20;2380.80;;;;;;5035275;28;19915;-85
2022/06/07 05:41:17;;;;;;;;;;;512.20;2380.80;;;;;;5039795;28;19905;-85
2022/06/07 05:43:42;;;;;;;;;;;512.80;2380.80;;;;;;5056494;28;19911;-85
2022/06/07 05:46:08;;;;;;;;;;;537.90;2406.40;;;;;;5053482;28;20453;-86
2022/06/07 05:48:35;;;;;;;;;;;538.30;2406.40;;;;;;5053847;28;19905;-87
2022/06/07 05:51:00;;;;;;;;;;;563.20;2432.00;;;;;;5052789;28;20385;-87
2022/06/07 05:53:26;;;;;;;;;;;563.40;2432.00;;;;;;5056420;28;19908;-86
2022/06/07 05:55:52;;;;;;;;;;;563.50;2432.00;;;;;;5025464;28;20380;-87
2022/06/07 05:58:17;;;;;;;;;;;563.40;2432.00;;;;;;5053512;28;19905;-87
2022/06/07 06:00:43;;;;;;;;;;;563.40;2432.00;;;;;;5070016;28;19909;-87
2022/06/07 06:03:09;;;;;;;;;;;563.50;2432.00;;;;;;5053256;28;19911;-87
2022/06/07 06:05:35;;;;;;;;;;;563.50;2432.00;;;;;;5053078;28;19932;-88
2022/06/07 06:10:45;;;;;;;;;;;563.40;2432.00;;;;;;5070967;28;19911;-88
2022/06/07 06:13:11;;;;;;;;;;;563.60;2432.00;;;;;;5052700;28;19905;-87
2022/06/07 06:15:36;;;;;;;;;;;563.90;2432.00;;;;;;5053237;28;20000;-88
2022/06/07 06:18:02;;;;;;;;;;;588.80;2432.00;;;;;;5052797;28;19905;-87
2022/06/07 06:20:28;;;;;;;;;;;589.00;2432.00;;;;;;5055901;28;19904;-88
2022/06/07 06:22:53;;;;;;;;;;;589.30;2432.00;;;;;;5057317;28;19904;-87
2022/06/07 06:25:19;;;;;;;;;;;589.30;2432.00;;;;;;5062106;28;19905;-87
2022/06/07 06:27:45;;;;;;;;;;;589.30;2432.00;;;;;;5055092;28;19970;-86
2022/06/07 06:30:12;;;;;;;;;;;589.20;2432.00;;;;;;5052203;28;20019;-85
2022/06/07 06:32:37;;;;;;;;;;;588.90;2432.00;;;;;;5054434;28;20252;-87
2022/06/07 06:35:04;;;;;;;;;;;588.90;2432.00;;;;;;5052170;28;19972;-88
2022/06/07 06:37:30;;;;;;;;;;;589.40;2432.00;;;;;;5055550;28;19904;-88
2022/06/07 06:39:55;;;;;;;;;;;589.50;2432.00;;;;;;5055225;28;19905;-88
2022/06/07 06:42:21;;;;;;;;;;;589.60;2432.00;;;;;;5052478;28;20003;-87
2022/06/07 06:44:46;;;;;;;;;;;589.70;2432.00;;;;;;5051589;28;20352;-85
2022/06/07 06:47:13;;;;;;;;;;;614.70;2432.00;;;;;;5052606;28;19913;-86
2022/06/07 06:49:39;;;;;;;;;;;615.00;2432.00;;;;;;5055054;28;19911;-86
2022/06/07 06:52:04;;;;;;;;;;;615.10;2432.00;;;;;;5051663;28;20416;-86
2022/06/07 06:54:33;;;;;;;;;;;615.20;2432.00;;;;;;5050854;28;19936;-85
2022/06/07 06:56:59;;;;;;;;;;;640.40;2432.00;;;;;;5057468;28;20374;-86
2022/06/07 06:59:24;;;;;;;;;;;640.90;2432.00;;;;;;5057074;28;19950;-85
2022/06/07 07:01:50;;;;;;;;;;;665.60;2432.00;;;;;;5051607;28;19939;-85
2022/06/07 07:04:18;;;;;;;;;;;666.20;2432.00;;;;;;5066833;28;19906;-89
2022/06/07 07:06:45;;;;;;;;;;;691.30;2432.00;;;;;;5051866;28;20007;-86
2022/06/07 07:09:11;;;;;;;;;;;691.30;2432.00;;;;;;5051407;28;19908;-86
2022/06/07 07:11:44;;;;;;;;;;;691.50;2432.00;;;;;;5050868;28;19904;-86
2022/06/07 07:14:10;;;;;;;;;;;691.70;2432.00;;;;;;5062481;28;19961;-86
2022/06/07 07:16:37;;;;;;;;;;;691.90;2432.00;;;;;;5054642;28;19931;-85
2022/06/07 07:19:04;;;;;;;;;;;691.80;2432.00;;;;;;5067522;28;19944;-85
2022/06/07 07:21:33;;;;;;;;;;;691.30;2432.00;;;;;;5054731;28;19995;-86
2022/06/07 07:24:00;;;;;;;;;;;691.70;2432.00;;;;;;5054624;28;19904;-84
2022/06/07 07:26:26;;;;;;;;;;;692.00;2432.00;;;;;;5065192;28;19921;-84
2022/06/07 07:28:55;;;;;;;;;;;691.70;2432.00;;;;;;5050695;28;19951;-83
2022/06/07 07:31:25;;;;;;;;;;;666.00;2432.00;;;;;;5051260;28;19904;-85
2022/06/07 07:33:51;;;;;;;;;;;666.30;2432.00;;;;;;5047799;28;19905;-86
2022/06/07 07:36:17;;;;;;;;;;;666.50;2432.00;;;;;;5041711;28;19905;-87
2022/06/07 07:38:43;;;;;;;;;;;691.20;2432.00;;;;;;5051423;28;19905;-86
2022/06/07 07:41:25;;;;;;;;;;;666.30;2432.00;;;;;;5052044;28;20271;-86
2022/06/07 07:43:52;;;;;;;;;;;691.20;2432.00;;;;;;5054968;28;20061;-86
2022/06/07 07:46:18;;;;;;;;;;;691.20;2432.00;;;;;;5065246;28;19948;-86
2022/06/07 07:48:44;;;;;;;;;;;666.30;2432.00;;;;;;5065197;28;19955;-85
2022/06/07 07:51:15;;;;;;;;;;;666.50;2432.00;;;;;;5056717;28;19931;-87
2022/06/07 07:53:42;;;;;;;;;;;691.70;2432.00;;;;;;5051217;28;19909;-89
2022/06/07 07:56:08;;;;;;;;;;;666.00;2432.00;;;;;;5055121;28;19904;-86
2022/06/07 07:58:34;;;;;;;;;;;666.10;2432.00;;;;;;5054135;28;19916;-87
2022/06/07 08:01:00;;;;;;;;;;;691.20;2432.00;;;;;;5051251;28;19950;-88
2022/06/07 08:03:26;;;;;;;;;;;666.50;2432.00;;;;;;5051815;28;19909;-86
2022/06/07 08:05:52;;;;;;;;;;;691.50;2432.00;;;;;;5057009;28;19912;-88
2022/06/07 08:08:17;;;;;;;;;;;691.50;2432.00;;;;;;5058771;28;19911;-88
2022/06/07 08:10:43;;;;;;;;;;;692.00;2432.00;;;;;;5055258;28;19905;-89
2022/06/07 08:13:08;;;;;;;;;;;692.00;2432.00;;;;;;5058644;28;19954;-87
2022/06/07 08:15:34;;;;;;;;;;;716.90;2432.00;;;;;;5057744;28;19963;-88
2022/06/07 08:18:04;;;;;;;;;;;716.80;2432.00;;;;;;5054769;28;20363;-89
2022/06/07 08:20:33;;;;;;;;;;;717.00;2406.40;;;;;;5042707;28;20013;-87
2022/06/07 08:22:59;;;;;;;;;;;717.20;2329.60;;;;;;5056682;28;19916;-86
2022/06/07 08:25:25;;;;;;;;;;;717.60;2227.20;;;;;;5054239;28;19909;-85
2022/06/07 08:27:50;;;;;;;;;;;717.30;2304.00;;;;;;5052687;28;19917;-87
2022/06/07 08:30:16;;;;;;;;;;;717.50;2252.80;;;;;;5057533;28;19911;-89
2022/06/07 08:32:41;;;;;;;;;;;717.50;2227.20;;;;;;5054731;28;19905;-90
2022/06/07 08:37:52;;;;;;;;;;;742.80;2099.20;;;;;;5073226;28;20335;-90
2022/06/07 08:40:28;;;;;;;;;;;743.20;2022.40;;;;;;5068258;28;19904;-90
2022/06/07 08:42:56;;;;;;;;;;;768.30;1920.00;;;;;;5065561;28;20393;-90
2022/06/07 08:45:23;;;;;;;;;;;768.70;1868.80;;;;;;5061029;28;19905;-89
2022/06/07 08:48:01;;;;;;;;;;;742.80;2048.00;;;;;;5062303;28;19909;-88
2022/06/07 08:50:29;;;;;;;;;;;742.90;2022.40;;;;;;5074304;28;19927;-87
2022/06/07 08:53:16;;;;;;;;;;;768.00;1971.20;;;;;;5067073;28;19952;-89
2022/06/07 08:55:43;;;;;;;;;;;743.20;2022.40;;;;;;5053820;28;19904;-87
2022/06/07 08:58:20;;;;;;;;;;;742.70;2124.80;;;;;;5067966;28;19966;-89
2022/06/07 09:00:48;;;;;;;;;;;717.70;2176.00;;;;;;5058808;28;19908;-87
2022/06/07 09:03:26;;;;;;;;;;;742.60;2150.40;;;;;;5057040;28;19911;-89
2022/06/07 09:05:55;;;;;;;;;;;742.60;2150.40;;;;;;5068333;28;20007;-88
2022/06/07 09:08:21;;;;;;;;;;;717.20;2252.80;;;;;;5072276;28;19965;-88
2022/06/07 09:13:34;;;;;;;;;;;716.80;2432.00;;;;;;5055463;28;19911;-89
2022/06/07 09:16:00;;;;;;;;;;;742.80;2124.80;;;;;;5067225;28;19915;-89
2022/06/07 09:18:26;;;;;;;;;;;;;;;;;;5060321;28;19912;-87
2022/06/07 09:20:54;;;;;;;;;;;742.40;2124.80;;;;;;5065562;28;19966;-85
2022/06/07 09:23:20;;;;;;;;;;;717.60;2150.40;;;;;;5054219;28;19909;-85
2022/06/07 09:25:48;;;;;;;;;;;717.50;2201.60;;;;;;5050519;28;19939;-86
2022/06/07 09:28:16;;;;;;;;;;;691.80;2432.00;;;;;;5052851;28;20396;-86
2022/06/07 09:30:44;;;;;;;;;;;691.80;2432.00;;;;;;5053095;28;19966;-86
2022/06/07 09:33:19;;;;;;;;;;;691.70;2432.00;;;;;;5053220;28;19904;-86
2022/06/07 09:35:44;;;;;;;;;;;691.60;2432.00;;;;;;5071029;28;19904;-86
2022/06/07 09:38:15;;;;;;;;;;;691.50;2432.00;;;;;;5072746;28;20466;-85
2022/06/07 09:40:42;;;;;;;;;;;691.60;2432.00;;;;;;5059105;28;19920;-86
2022/06/07 09:43:11;;;;;;;;;;;691.60;2432.00;;;;;;5064031;28;19912;-86
2022/06/07 09:45:39;;;;;;;;;;;691.70;2432.00;;;;;;5053731;28;19920;-86
2022/06/07 09:48:19;;;;;;;;;;;691.80;2432.00;;;;;;5032695;28;19912;-86
2022/06/07 09:50:53;;;;;;;;;;;691.70;2432.00;;;;;;5044838;28;19916;-85
2022/06/07 09:53:19;;;;;;;;;;;691.90;2432.00;;;;;;5034460;28;19905;-86
2022/06/07 09:55:57;;;;;;;;;;;692.00;2432.00;;;;;;5047614;28;19912;-86
2022/06/07 09:58:34;;;;;;;;;;;692.10;2432.00;;;;;;5032473;28;19905;-88
2022/06/07 10:01:08;;;;;;;;;;;716.80;2432.00;;;;;;5023681;28;19932;-89
2022/06/07 10:03:34;;;;;;;;;;;691.80;2432.00;;;;;;5031736;28;19909;-88
2022/06/07 10:06:15;;;;;;;;;;;691.70;2432.00;;;;;;5052789;28;19913;-88
2022/06/07 10:08:43;;;;;;;;;;;691.90;2432.00;;;;;;5063833;28;19905;-87
2022/06/07 10:11:21;;;;;;;;;;;716.80;2432.00;;;;;;5039556;28;20291;-88
2022/06/07 10:13:46;;;;;;;;;;;716.80;2432.00;;;;;;5045532;28;19945;-88
2022/06/07 10:16:30;;;;;;;;;;;717.20;2380.80;;;;;;5037406;28;19963;-87
2022/06/07 10:19:11;;;;;;;;;;;717.20;2432.00;;;;;;5057514;28;20368;-88
2022/06/07 10:21:40;;;;;;;;;;;717.30;2304.00;;;;;;5065272;28;20458;-90
2022/06/07 10:24:05;;;;;;;;;;;717.40;2252.80;;;;;;5037797;28;19965;-89
2022/06/07 10:26:51;;;;;;;;;;;717.60;2227.20;;;;;;5044093;28;20007;-89
2022/06/07 10:29:31;;;;;;;;;;;742.40;2176.00;;;;;;5043882;28;19911;-87
2022/06/07 10:32:17;;;;;;;;;;;742.70;2150.40;;;;;;5042232;28;20355;-86
2022/06/07 10:34:45;;;;;;;;;;;743.00;2048.00;;;;;;5043980;28;19905;-84
2022/06/07 10:37:14;;;;;;;;;;;743.00;2048.00;;;;;;5068928;28;19905;-86
2022/06/07 10:39:42;;;;;;;;;;;743.20;1996.80;;;;;;5045162;28;19904;-84
2022/06/07 10:42:33;;;;;;;;;;;768.00;1945.60;;;;;;5067314;28;19934;-84
2022/06/07 10:45:12;;;;;;;;;;;743.30;1945.60;;;;;;5046338;28;19911;-85
2022/06/07 10:47:56;;;;;;;;;;;768.00;1894.40;;;;;;5030607;28;19991;-85
2022/06/07 10:50:34;;;;;;;;;;;768.10;1894.40;;;;;;5038772;28;19951;-85
2022/06/07 10:53:06;;;;;;;;;;;768.10;1868.80;;;;;;5035399;28;19912;-84
2022/06/07 10:55:35;;;;;;;;;;;768.10;1868.80;;;;;;5057645;28;19904;-83
2022/06/07 10:58:19;;;;;;;;;;;768.20;1868.80;;;;;;5054745;28;20034;-85
2022/06/07 11:00:51;;;;;;;;;;;768.10;1843.20;;;;;;5036918;28;19909;-84
2022/06/07 11:03:27;;;;;;;;;;;768.00;1868.80;;;;;;5035088;28;19909;-84
2022/06/07 11:11:29;;;;;;;;;;;768.00;1894.40;;;;;;5041179;28;19959;-85
2022/06/07 11:13:58;;;;;;;;;;;768.10;1868.80;;;;;;5068895;28;19904;-84
2022/06/07 11:16:56;;;;;;;;;;;768.00;1868.80;;;;;;5041521;28;20248;-86
2022/06/07 11:19:22;;;;;;;;;;;743.30;1894.40;;;;;;5020701;28;19944;-84
2022/06/07 11:21:49;;;;;;;;;;;743.20;1920.00;;;;;;5068510;28;20324;-86
2022/06/07 11:24:21;;;;;;;;;;;743.20;1894.40;;;;;;5036999;28;19951;-86
2022/06/07 11:26:50;;;;;;;;;;;742.90;1971.20;;;;;;5051175;28;19971;-84
2022/06/07 11:29:19;;;;;;;;;;;743.10;1920.00;;;;;;5038967;28;19905;-85
2022/06/07 11:31:45;;;;;;;;;;;768.00;1945.60;;;;;;5031686;28;20279;-85
2022/06/07 11:34:26;;;;;;;;;;;768.20;1894.40;;;;;;5045365;28;19992;-85
2022/06/07 11:37:07;;;;;;;;;;;768.30;1868.80;;;;;;5032517;28;19905;-86
2022/06/07 11:39:36;;;;;;;;;;;768.00;1868.80;;;;;;5048299;28;19905;-87
2022/06/07 11:42:11;;;;;;;;;;;768.10;1868.80;;;;;;5041039;28;19905;-85
2022/06/07 11:44:37;;;;;;;;;;;768.40;1868.80;;;;;;5036790;28;20290;-86
2022/06/07 11:47:02;;;;;;;;;;;768.70;1843.20;;;;;;5035330;28;20004;-86
2022/06/07 11:49:28;;;;;;;;;;;793.60;1843.20;;;;;;5035416;28;19928;-87
2022/06/07 11:52:02;;;;;;;;;;;793.70;1843.20;;;;;;5037359;28;20000;-87
2022/06/07 11:54:43;;;;;;;;;;;794.00;1766.40;;;;;;5047743;28;20003;-89
2022/06/07 11:57:28;;;;;;;;;;;794.30;1715.20;;;;;;5044229;28;19905;-85
2022/06/07 11:59:56;;;;;;;;;;;794.10;1766.40;;;;;;5021930;28;20352;-86
2022/06/07 12:02:28;;;;;;;;;;;794.20;1766.40;;;;;;5036551;28;19909;-85
2022/06/07 12:04:57;;;;;;;;;;;794.00;1792.00;;;;;;5035552;28;19944;-86
2022/06/07 12:07:32;;;;;;;;;;;793.60;1740.80;;;;;;5035064;28;20003;-85
2022/06/07 12:10:21;;;;;;;;;;;794.30;1689.60;;;;;;5036161;28;20366;-85
2022/06/07 12:12:50;;;;;;;;;;;819.20;1638.40;;;;;;5035158;28;20394;-85
2022/06/07 12:15:18;;;;;;;;;;;819.20;1587.20;;;;;;5033308;28;19995;-86
2022/06/07 12:17:52;;;;;;;;;;;794.20;1612.80;;;;;;5038866;28;19905;-87
2022/06/07 12:20:22;;;;;;;;;;;794.40;1536.00;;;;;;5037844;28;19905;-86
2022/06/07 12:22:48;;;;;;;;;;;794.40;1510.40;;;;;;5034632;28;19959;-84
2022/06/07 12:25:19;;;;;;;;;;;794.10;1536.00;;;;;;5038649;28;19944;-84
2022/06/07 12:27:46;;;;;;;;;;;794.20;1510.40;;;;;;5047857;28;19917;-85
2022/06/07 12:30:25;;;;;;;;;;;794.30;1510.40;;;;;;5036307;28;19905;-86
2022/06/07 12:32:51;;;;;;;;;;;793.90;1561.60;;;;;;5051614;28;20408;-88
2022/06/07 12:35:25;;;;;;;;;;;793.90;1561.60;;;;;;5045979;28;19905;-85
2022/06/07 12:37:52;;;;;;;;;;;794.10;1536.00;;;;;;5052411;28;19950;-85
2022/06/07 12:40:24;;;;;;;;;;;794.30;1536.00;;;;;;5033968;28;20381;-86
2022/06/07 12:42:50;;;;;;;;;;;794.40;1484.80;;;;;;5037254;28;19905;-83
2022/06/07 12:45:19;;;;;;;;;;;819.30;1459.20;;;;;;5037135;28;19905;-85
2022/06/07 12:47:46;;;;;;;;;;;819.20;1459.20;;;;;;5037310;28;19913;-85
2022/06/07 12:50:19;;;;;;;;;;;819.20;1433.60;;;;;;5037686;28;19968;-85
2022/06/07 12:52:50;;;;;;;;;;;794.40;1459.20;;;;;;5036748;28;19920;-85
2022/06/07 12:55:17;;;;;;;;;;;819.30;1433.60;;;;;;5034643;28;19909;-86
2022/06/07 12:57:48;;;;;;;;;;;819.30;1433.60;;;;;;5037305;28;19941;-84
2022/06/07 13:00:16;;;;;;;;;;;819.50;1408.00;;;;;;5033900;28;19905;-84
2022/06/07 13:02:43;;;;;;;;;;;819.30;1433.60;;;;;;5023385;28;19905;-84
2022/06/07 13:05:10;;;;;;;;;;;819.50;1408.00;;;;;;5046560;28;19905;-83
2022/06/07 13:07:47;;;;;;;;;;;819.60;1408.00;;;;;;5039991;28;19913;-85
2022/06/07 13:10:13;;;;;;;;;;;;;;;;;;5041500;28;19968;-86
2022/06/07 13:12:42;;;;;;;;;;;947.30;1177.60;;;;;;5051603;28;20331;-86
2022/06/07 13:15:16;;;;;;;;;;;947.20;1177.60;;;;;;5053352;28;20364;-86
2022/06/07 13:17:52;;;;;;;;;;;998.50;1100.80;;;;;;5035677;28;19905;-84
2022/06/07 13:20:26;;;;;;;;;;;973.70;1075.20;;;;;;5031125;28;19912;-83
2022/06/07 13:22:52;;;;;;;;;;;;;;;;;;5032947;28;19993;-83
2022/06/07 13:25:18;;;;;;;;;;;;;;;;;;5036422;28;20043;-83
2022/06/07 13:27:45;;;;;;;;;;;;;;;;;;5047089;28;19992;-87
2022/06/07 13:30:11;;;;;;;;;;;;;;;;;;5043528;28;19916;-85
2022/06/07 13:32:37;;;;;;;;;;;1050.10;947.20;;;;;;5086003;28;20278;-84
2022/06/07 13:35:03;;;;;;;;;;;;;;;;;;5044752;28;19904;-84
2022/06/07 13:37:29;;;;;;;;;;;;;;;;;;5037630;28;19911;-83
2022/06/07 13:39:58;;;;;;;;;;;;;;;;;;5047810;28;19916;-84
2022/06/07 13:42:24;;;;;;;;;;;;;;;;;;5041768;28;19999;-85
2022/06/07 13:44:50;;;;;;;;;;;;;;;;;;5077626;28;19936;-85
2022/06/07 13:47:21;;;;;;;;;;;1101.50;896.00;;;;;;5074151;28;19959;-84
2022/06/07 13:55:37;;;;;;;;;;;;;;;;;;5055107;28;19912;-84
2022/06/07 13:58:03;;;;;;;;;;;;;;;;;;5071906;28;19904;-83
2022/06/07 14:00:28;;;;;;;;;;;;;;;;;;5039959;28;19904;-83
2022/06/07 14:02:55;;;;;;;;;;;;;;;;;;5071374;28;19911;-83
2022/06/07 14:05:21;;;;;;;;;;;;;;;;;;5080070;28;19927;-83
2022/06/07 14:07:46;;;;;;;;;;;1126.50;896.00;;;;;;5044072;28;20271;-84
2022/06/07 14:10:16;;;;;;;;;;;1101.10;896.00;;;;;;5045764;28;19905;-82
2022/06/07 14:12:42;;;;;;;;;;;1075.60;896.00;;;;;;5041910;28;19909;-85
2022/06/07 14:15:08;;;;;;;;;;;1101.50;870.40;;;;;;5043780;28;20395;-84
2022/06/07 14:17:33;;;;;;;;;;;1101.30;870.40;;;;;;5043518;28;20003;-83
2022/06/07 14:19:59;;;;;;;;;;;1076.10;896.00;;;;;;5051220;28;19939;-84
2022/06/07 14:22:26;;;;;;;;;;;1100.80;896.00;;;;;;5049126;28;19905;-82